Terminal Aerodrome Forecast
Issued by NWS

Home | Current Version | Previous Version | Text Only | Print | Product List | Glossary On
Versions: 1 2 3 4 5 6 7 8 9 10 11 12 13
000
FTUS43 KILX 260255 AAA
TAFDEC
TAF AMD
KDEC 260255Z 2603/2624 17015KT P6SM BKN200
     FM261100 18011KT P6SM VCTS BKN035CB
     FM261700 19012G20KT 6SM -SHRA VCTS BKN030CB
     FM262200 19012G18KT 5SM SHRA VCTS OVC025CB=

USA.gov is the U.S. government's official web portal to all federal, state and local government web resources and services.